Pagrindinis puslapis
METAR-TAF:

METAR-TAF

Oro uostai :

Juigalpa, Nikaragva

platuma: 12-06N, ilguma: 085-22W, Aukštis: 90 m

Dabartinis oras

Ataskaita buvo paskelbta 1 valandą ir 14 minutes, ne 15:00 UTC
Ramus vėjas
Temperatūra 28°C
Drėgmė 66%
Slėgis 1013 hPa
Matomumas 10 km arba daugiau
Išsisklaidę debesys ne aukštis 2000 ft
Išsisklaidę debesys ne aukštis 8000 ft

METAR: MNJU 171500Z 00000KT 9999 SCT020 SCT080 28/21 Q1013

Laikas: 10:14 (16:14 UTC)


TAF: trūkstamas

Orai ataskaitas ir orų prognozės (METAR, TAF).

turimą stotys yra geltonos ir raudonos taškus žemėlapyje.

Perkelti pele per norėdami pamatyti stoties vardą.

Tada spustelėkite, norėdami matyti oro stebėjimo ir prognozės.

Norėdami pakeisti žemėlapį: spustelėkite ant žalios mygtukų su juodo kryžiaus žemyn,; žalią mygtuką su brūkšneliu, jei norite nutolinti; arba žalių rodyklių gretimoms žemėlapius.


METAR-TAF: